Date,TemperatureHighF,TemperatureAvgF,TemperatureLowF,DewpointHighF,DewpointAvgF,DewpointLowF,HumidityHigh,HumidityAvg,HumidityLow,PressureMaxIn,PressureMinIn,WindSpeedMaxMPH,WindSpeedAvgMPH,GustSpeedMaxMPH,PrecipitationSumIn
2013-1-26,40.5,28.9,23.0,16.0,9.8,0.9,63,46,26,29.85,29.68,11,4,15,0.00
2013-1-27,38.3,30.3,23.5,27.0,17.3,9.3,79,59,37,29.82,29.71,3,0,9,0.00
2013-1-28,34.7,21.4,12.7,14.5,6.3,0.7,67,53,30,29.85,29.74,0,0,0,0.00
2013-1-29,15.3,3.6,-11.9,3.2,-10.3,-27.2,62,52,45,30.27,29.71,0,0,0,0.00
2013-1-30,12.2,-1.6,-12.8,-5.1,-17.7,-28.1,45,45,45,30.24,29.91,0,0,0,0.00
2013-1-31,5.4,-8.0,-25.1,-11.4,-23.6,-39.3,45,45,45,30.36,29.97,0,0,0,0.00
2013-2-1,33.4,18.1,2.8,26.8,2.5,-13.5,79,51,35,30.03,29.94,0,0,0,0.00
2013-2-2,36.1,30.8,21.9,21.6,14.8,9.1,69,52,32,30.18,30.03,9,3,13,0.00
2013-2-3,32.7,19.2,11.3,15.3,6.7,-0.2,75,58,32,30.00,29.79,3,0,6,0.00
2013-2-4,39.6,23.9,10.0,14.7,6.2,-9.2,63,47,33,29.88,29.68,7,3,10,0.00
2013-2-5,35.6,27.3,18.7,16.0,10.1,6.3,70,49,32,29.94,29.65,6,2,9,0.00
2013-2-6,38.8,27.8,16.9,19.4,12.5,5.7,75,54,33,29.97,29.74,7,2,9,0.00
2013-2-7,29.7,19.3,6.8,16.3,7.6,-4.5,72,60,46,30.03,29.91,8,3,11,0.00
2013-2-8,28.6,16.5,5.7,13.3,4.1,-6.2,71,58,46,29.94,29.88,5,0,6,0.00
2013-2-9,32.2,17.0,4.3,18.7,4.3,-6.2,68,57,35,29.94,29.79,0,0,6,0.00
2013-2-10,30.6,27.5,24.1,19.4,11.7,2.3,65,51,36,30.00,29.88,8,5,11,0.00
2013-3-27,23.5,23.4,23.0,11.3,11.1,10.4,59,59,58,30.06,30.06,8,6,10,0.00
2013-3-28,42.3,28.7,14.2,19.3,10.5,2.6,68,48,30,30.12,30.03,9,5,11,0.00
2013-3-29,57.2,40.0,28.4,25.9,19.8,14.0,72,48,22,30.06,29.98,8,3,10,0.00
2013-3-30,51.1,37.7,27.1,27.8,18.5,10.0,82,51,21,30.12,30.06,6,1,9,0.00
2013-3-31,40.1,31.8,24.8,15.1,9.7,4.0,58,40,29,30.21,30.06,8,4,10,0.00
2013-4-1,47.7,32.6,23.0,21.7,13.2,7.6,74,48,22,30.24,30.12,8,3,10,0.00
2013-4-2,56.7,37.7,25.3,20.4,17.2,12.3,76,48,20,30.18,29.86,10,6,11,0.00
2013-4-3,53.1,43.3,34.2,19.9,12.5,5.8,51,30,19,30.15,29.83,10,3,14,0.00
2013-4-4,47.7,37.2,31.1,13.8,10.7,7.9,47,34,22,30.24,29.98,13,6,15,0.00
2013-4-5,66.6,46.6,32.9,30.1,19.3,13.4,59,37,17,29.95,29.62,11,4,13,0.00
2013-4-6,55.4,43.3,35.8,36.1,24.5,15.9,76,51,22,29.89,29.74,6,1,11,0.00
2013-4-7,57.6,41.3,28.4,34.9,20.3,8.2,81,49,19,29.89,29.68,10,5,13,0.00
2013-4-8,30.0,24.5,13.8,7.4,-0.9,-7.6,52,34,23,30.39,29.92,11,6,11,0.00
2013-4-9,44.8,24.5,9.3,6.1,-0.2,-5.1,55,37,20,30.48,30.33,4,0,5,0.00
2013-4-10,46.6,32.0,14.0,6.5,4.4,1.5,60,34,19,30.33,29.86,13,5,14,0.00
2013-4-11,48.4,40.9,32.7,25.4,14.8,3.1,73,36,24,29.83,29.77,8,4,13,0.00
2013-4-12,55.6,46.2,30.2,15.9,13.1,1.9,53,27,17,29.98,29.83,8,2,12,0.00
2013-4-13,49.3,37.3,27.9,28.4,17.2,7.8,78,49,19,29.83,29.53,14,9,17,0.00
2013-4-14,34.3,29.6,26.4,29.4,17.9,12.9,82,62,46,30.03,29.65,8,0,13,0.00
2013-4-15,35.4,30.0,25.7,18.1,12.0,5.2,68,49,30,30.18,30.00,7,1,8,0.00
2013-4-16,35.4,29.3,23.9,17.0,10.5,4.4,66,47,27,30.36,30.18,6,2,9,0.00
2013-4-17,37.6,27.7,14.5,14.5,6.4,0.4,69,44,22,30.39,30.30,6,2,8,0.00
2013-4-18,44.1,28.5,6.3,23.1,7.6,-4.7,67,44,23,30.30,30.00,6,2,8,0.00
2013-4-19,50.2,37.6,24.6,28.2,16.4,8.2,79,47,21,30.03,29.89,9,4,10,0.00
2013-4-20,59.4,47.2,30.4,25.4,18.8,13.0,72,37,19,29.89,29.74,10,5,13,0.00
2013-4-21,42.1,35.5,26.2,25.2,8.3,-1.1,53,33,21,30.27,29.92,10,5,10,0.00
2013-4-22,47.3,29.9,17.4,9.5,3.5,-1.5,67,35,19,30.42,30.30,6,2,8,0.00
2013-4-23,56.1,38.0,18.7,20.4,9.5,5.0,65,34,19,30.30,30.00,8,3,10,0.00
2013-4-24,55.9,40.1,30.2,28.5,13.4,3.2,78,39,17,30.12,29.89,10,4,11,0.00
2013-4-25,69.1,49.4,28.2,22.4,15.5,7.0,51,28,17,29.89,29.77,14,6,19,0.00
2013-4-26,76.8,55.5,32.4,25.6,19.0,9.7,61,27,15,30.03,29.89,14,7,22,0.00
2013-4-27,78.3,63.3,43.2,26.8,19.1,9.4,28,18,15,29.92,29.68,20,9,26,0.00
2013-4-28,68.2,56.6,45.5,21.7,15.6,8.8,24,20,17,29.95,29.71,12,6,16,0.00
2013-4-29,68.5,54.1,42.3,22.0,14.2,6.2,27,20,17,29.68,29.44,21,10,30,0.00
2013-4-30,47.7,36.9,26.8,24.5,10.2,3.5,63,35,19,30.24,29.56,20,14,29,0.00
2013-5-1,53.2,36.5,14.9,10.8,6.2,2.3,60,32,18,30.54,30.24,11,6,19,0.00
2013-5-2,66.9,47.1,24.3,20.6,9.5,-1.7,34,22,17,30.57,30.24,13,8,19,0.00
2013-5-3,67.5,51.5,32.7,21.1,11.6,-0.3,25,20,17,30.24,30.09,14,6,17,0.00
2013-5-4,70.5,55.6,41.4,23.6,13.3,4.3,21,19,17,30.30,30.18,19,10,20,0.00
2013-5-5,73.6,54.0,29.5,24.6,13.4,0.6,31,20,16,30.27,30.03,10,6,16,0.00
2013-5-6,82.0,57.6,32.7,28.1,16.0,4.1,31,20,14,30.09,29.89,10,6,19,0.00
2013-5-7,86.0,63.5,40.3,29.4,18.2,3.4,23,18,13,29.95,29.80,25,9,35,0.00
2013-5-8,68.5,57.0,44.8,22.0,16.1,9.7,29,20,17,30.18,29.95,24,12,32,0.00
2013-5-9,77.9,56.9,43.7,26.5,13.9,5.2,20,18,15,30.24,30.09,19,9,22,0.00
2013-5-10,63.1,52.3,38.5,19.9,13.2,3.1,41,21,18,30.39,30.09,18,7,20,0.00
2013-5-11,77.2,51.6,26.1,25.9,12.2,0.0,32,21,15,30.48,30.12,13,8,18,0.00
2013-5-12,87.4,63.8,37.6,30.5,17.7,1.1,21,17,13,30.15,29.80,16,9,18,0.00
2013-5-13,94.6,72.2,53.8,46.5,27.5,15.1,57,21,11,29.89,29.53,20,9,28,0.00
2013-5-14,74.5,62.9,52.0,50.4,24.1,15.5,73,26,16,29.89,29.65,24,12,31,0.00
2013-5-15,74.8,60.9,43.0,25.6,19.4,12.3,35,21,16,30.00,29.86,16,6,18,0.00
2013-5-16,79.3,62.5,47.3,48.2,26.6,15.8,70,29,15,29.89,29.80,14,6,16,0.00
2013-5-17,77.9,62.5,53.6,46.4,33.6,24.2,72,39,15,29.89,29.80,13,8,16,0.00
2013-5-18,70.7,61.5,56.3,50.4,37.5,27.1,76,44,22,29.89,29.83,16,5,19,0.00
2013-5-19,69.4,61.1,54.1,40.1,30.8,19.5,51,34,17,30.00,29.86,20,11,29,0.00
2013-5-20,69.6,58.4,52.2,27.3,21.1,16.1,36,24,17,30.06,29.98,16,8,24,0.00
2013-5-21,72.0,58.9,41.0,23.9,18.5,13.1,33,21,16,30.09,29.98,18,10,28,0.00
2013-5-22,74.7,61.8,51.4,25.5,20.6,12.9,33,21,16,30.06,30.00,29,15,37,0.00
2013-5-23,73.8,61.9,47.1,25.0,20.4,11.8,36,21,16,30.12,29.86,36,22,42,0.00
2013-5-24,77.9,62.1,49.3,37.2,23.3,10.9,52,24,15,29.86,27.70,28,12,32,0.00
2013-5-25,84.6,63.2,45.9,46.8,28.5,14.7,63,31,13,29.97,27.76,27,13,30,0.00
2013-5-26,82.9,65.4,49.8,48.8,36.3,24.1,76,41,14,29.94,29.76,25,7,25,0.35
2013-5-27,78.4,62.7,55.0,49.8,39.5,28.3,74,47,18,29.79,29.67,14,6,20,0.31
2013-5-28,72.3,60.4,49.3,48.4,36.6,24.4,81,48,18,29.67,29.65,8,3,13,0.00
2013-5-29,69.4,57.0,45.8,51.4,40.2,27.4,80,58,22,29.70,29.62,16,5,20,0.24
2013-5-30,56.6,54.5,52.9,46.9,39.1,30.7,78,57,38,29.65,29.62,19,12,22,1.34
2013-5-31,51.8,49.8,48.4,42.7,41.0,39.1,74,72,68,29.70,29.65,11,6,18,0.12
2013-6-2,68.9,63.2,57.4,22.4,20.8,17.8,25,20,17,29.88,29.82,19,16,22,0.00
2013-6-3,55.9,48.4,45.3,39.9,34.8,20.9,75,61,26,29.94,29.67,31,21,41,1.73
2013-6-4,61.3,51.3,43.9,33.9,24.9,16.6,65,39,18,30.18,29.94,18,9,21,0.00
2013-6-5,70.3,57.1,44.6,37.1,27.0,19.3,71,37,16,30.18,30.03,11,5,16,0.00
2013-6-6,75.4,58.8,43.7,36.3,26.4,17.5,71,34,15,30.03,29.94,10,5,13,0.00
2013-6-7,73.2,60.9,45.5,51.3,32.6,22.7,77,40,15,29.94,29.65,21,5,24,0.43
2013-6-8,73.7,60.8,49.3,53.9,48.4,32.7,86,65,37,29.85,29.65,19,8,25,0.16
2013-6-9,83.6,64.9,47.5,61.9,52.8,46.4,100,68,48,29.91,29.62,13,6,22,0.00
2013-6-10,88.5,64.5,46.7,65.7,52.1,46.7,100,67,47,29.85,29.73,7,3,12,0.00
2013-6-11,71.2,59.9,52.5,56.5,50.5,45.0,100,73,54,29.97,29.82,19,8,24,0.24
2013-6-12,79.0,64.7,54.8,60.4,55.2,52.2,100,74,52,30.06,29.94,15,7,16,0.00
2013-6-13,86.0,65.3,55.7,64.0,56.2,51.9,100,74,48,29.97,29.73,20,9,25,0.08
2013-6-14,68.9,60.6,49.1,58.3,51.9,45.5,100,75,52,29.88,29.73,30,12,35,0.55
2013-6-15,75.9,61.6,46.2,55.9,48.0,40.1,86,62,50,29.94,29.85,18,11,25,0.00
2013-6-16,74.6,61.6,46.7,54.8,49.9,45.6,100,68,50,30.06,29.91,18,7,19,0.00
2013-6-17,83.1,63.1,44.4,61.4,52.1,44.4,100,71,48,30.12,29.97,7,2,16,0.00
2013-6-18,84.5,67.2,52.3,64.4,56.0,50.5,100,70,48,30.00,29.70,19,11,26,0.00
2013-6-19,85.6,71.9,59.5,65.4,58.6,54.0,93,65,49,29.73,29.53,25,15,28,0.00
2013-6-20,79.3,64.6,50.9,58.5,54.6,45.6,100,73,49,29.91,29.59,16,6,26,0.28
2013-6-21,75.7,58.6,45.8,55.8,50.8,45.4,100,79,50,30.03,29.91,10,3,19,0.00
2013-6-22,76.1,60.9,45.5,57.0,51.7,45.5,100,75,50,29.97,29.82,7,2,13,0.00
2013-6-23,79.7,65.8,53.4,58.8,53.4,47.9,96,67,49,29.85,29.67,13,7,15,0.00
2013-6-24,86.5,69.2,47.6,65.7,56.6,47.6,100,67,50,29.70,29.53,21,9,23,0.00
2013-6-25,85.8,69.6,57.4,63.8,58.6,55.0,100,71,48,29.70,29.56,19,8,19,0.51
2013-6-26,81.3,67.7,53.9,60.3,55.6,48.5,100,69,49,29.88,29.70,16,6,19,0.00
2013-6-27,84.4,68.1,51.6,62.5,54.1,48.3,100,63,48,30.09,29.91,16,6,25,0.00
2013-6-28,87.4,70.6,52.0,65.3,57.3,51.7,100,66,48,30.15,30.06,10,3,16,0.00
2013-6-29,87.6,70.4,52.7,64.9,56.8,50.1,100,65,47,30.12,30.03,10,4,15,0.00
2013-6-30,87.8,69.3,55.6,65.0,57.7,53.5,100,70,47,30.09,30.06,13,8,21,0.00
2013-7-1,90.8,73.9,60.8,68.2,61.0,56.0,95,67,47,30.12,30.03,10,6,13,0.00
2013-7-2,98.8,75.9,58.6,75.0,62.3,55.1,100,66,46,30.06,29.85,11,7,16,0.00
2013-7-3,97.5,78.5,57.4,74.5,63.2,53.6,96,62,48,29.85,29.67,13,7,15,0.00
2013-7-4,96.4,76.6,59.9,72.3,62.4,55.3,100,65,46,29.82,29.67,8,3,13,0.00
2013-7-5,88.7,73.6,60.1,67.7,61.0,54.7,100,67,50,29.73,29.65,14,6,16,0.00
2013-7-6,81.8,69.5,58.3,63.1,56.1,50.2,100,64,49,29.88,29.67,14,6,22,0.00
2013-7-7,88.3,70.4,53.8,65.5,57.6,52.1,100,67,47,29.94,29.82,13,6,16,0.00
2013-7-8,80.4,67.3,56.6,63.7,59.1,54.7,100,78,54,29.97,29.82,16,6,22,0.24
2013-7-9,85.1,65.4,53.8,63.2,55.7,52.0,100,74,48,30.09,29.91,10,4,15,0.00
2013-7-10,96.8,72.6,52.0,71.9,59.4,52.0,100,67,45,30.06,29.79,11,6,14,0.00
2013-7-11,95.0,76.6,60.6,72.2,63.2,55.4,100,67,46,29.79,29.59,11,6,15,0.00
2013-7-12,90.7,75.8,58.8,67.7,57.4,50.2,78,54,47,29.85,29.65,10,5,14,0.00
2013-7-13,84.7,71.1,53.0,64.6,56.8,45.7,93,62,48,30.12,29.79,18,8,20,0.00
2013-7-14,76.1,61.6,46.7,56.1,50.9,46.7,100,71,50,30.24,30.09,15,8,20,0.00
2013-7-15,100.9,74.0,54.7,77.0,61.4,51.7,100,69,46,30.09,29.73,16,8,22,0.04
2013-7-16,78.8,65.5,53.4,58.0,50.8,43.3,76,60,49,30.21,29.88,13,8,15,0.00
2013-7-17,73.2,62.3,53.8,61.0,56.3,50.8,100,82,61,30.18,29.97,14,6,20,0.08
2013-7-18,89.2,73.0,56.6,66.4,60.1,52.4,100,68,47,29.97,29.88,21,8,28,0.00
2013-7-19,95.5,73.5,52.5,71.4,59.2,51.7,100,65,46,30.00,29.82,13,4,19,0.00
2013-7-20,87.1,70.2,54.8,65.0,56.9,51.2,100,65,48,29.94,29.82,19,9,22,0.00
2013-7-21,85.6,72.9,59.2,64.3,59.4,49.2,100,66,48,29.82,29.67,14,8,19,0.00
2013-7-22,80.9,66.8,52.1,60.0,53.3,48.1,100,64,49,29.94,29.82,14,9,19,0.00
2013-7-23,86.5,68.7,53.8,64.5,55.5,49.0,100,65,48,30.00,29.91,14,6,18,0.00
2013-7-24,91.2,69.0,54.3,67.5,58.8,52.5,100,74,46,30.06,29.94,21,4,33,0.20
2013-7-25,71.0,62.6,49.4,59.5,51.3,41.1,100,69,51,30.21,30.00,14,5,20,0.00
2013-7-26,75.5,58.7,45.3,55.6,48.3,41.8,100,72,50,30.30,30.15,16,9,22,0.00
2013-7-27,83.1,65.4,47.5,61.4,49.7,39.9,75,58,48,30.15,29.82,22,13,31,0.00
2013-7-28,82.7,65.9,52.0,61.0,49.1,38.9,75,55,48,29.91,29.79,19,10,25,0.00
2013-7-29,82.4,64.4,54.8,60.7,53.0,44.1,100,69,48,30.00,29.82,10,5,16,0.00
2013-7-30,81.1,64.2,50.5,60.1,52.8,43.5,100,69,49,30.12,30.00,10,5,14,0.20
2013-7-31,85.8,66.3,45.7,63.8,52.7,45.4,100,65,48,30.18,30.00,9,4,15,0.00
2013-8-1,83.8,66.2,49.8,62.0,51.8,44.6,97,62,48,30.06,29.91,13,6,15,0.00
2013-8-2,72.1,62.9,56.5,56.7,51.5,47.8,87,67,54,30.06,29.94,14,7,16,0.04
2013-8-3,80.4,64.1,54.8,62.4,56.5,51.4,100,79,51,30.12,29.97,22,10,22,1.06
2013-8-4,82.7,68.0,56.1,62.8,57.9,54.7,100,73,51,30.03,29.91,14,4,16,0.00
2013-8-5,89.8,69.4,52.9,66.8,57.0,52.1,100,69,47,29.94,29.70,13,4,19,0.00
2013-8-6,81.7,65.4,54.8,60.6,55.4,50.9,100,73,49,29.97,29.79,15,7,22,0.00
2013-8-7,71.2,59.3,47.3,55.0,50.0,43.4,100,74,51,30.06,29.97,16,8,20,0.00
2013-8-8,76.6,61.4,45.3,56.3,46.5,37.4,100,62,35,30.12,30.03,14,7,19,0.00
2013-8-9,79.1,63.0,48.5,48.4,41.5,37.5,77,48,34,30.18,30.06,14,8,19,0.00
2013-8-10,87.1,66.2,56.1,54.5,44.9,38.8,68,47,33,30.12,29.94,19,12,27,0.00
2013-8-11,82.6,65.7,53.2,53.0,49.0,44.0,98,60,33,30.09,29.97,19,10,22,0.00
2013-8-12,83.5,68.8,55.2,64.5,53.7,43.0,75,59,53,30.09,30.00,19,12,19,0.00
2013-8-13,85.3,70.0,59.9,66.2,56.2,48.5,83,62,53,30.09,29.97,16,10,17,0.00
2013-8-14,77.2,66.7,58.6,62.8,59.3,53.8,100,79,57,30.00,29.94,10,6,13,0.00
2013-8-15,88.7,70.0,47.5,68.8,59.0,47.5,100,72,52,29.97,29.88,15,5,16,0.00
2013-8-16,96.6,75.1,56.3,76.7,62.0,53.3,100,66,51,29.91,29.79,16,7,16,0.00
2013-8-17,93.0,75.1,60.6,71.0,54.5,37.4,84,53,22,29.85,29.79,11,4,13,0.00
2013-8-18,90.7,70.1,57.0,63.8,50.5,40.5,100,57,24,30.00,29.82,23,6,23,0.08
2013-8-19,93.9,72.9,54.3,56.6,49.1,41.8,100,51,22,29.85,29.70,14,6,15,0.00
2013-8-20,88.9,72.1,55.2,49.9,44.1,35.7,78,40,24,29.85,29.70,16,6,16,0.00
2013-8-21,82.6,67.1,55.2,55.6,43.6,35.6,100,48,26,30.09,29.82,22,11,25,0.00
2013-8-22,91.7,71.4,52.3,47.9,41.8,33.5,52,36,22,30.15,29.85,19,10,19,0.00
2013-8-23,95.5,75.9,61.1,58.3,52.2,42.1,88,49,22,29.85,29.65,13,7,16,0.00
2013-8-24,89.9,75.8,63.3,48.3,43.8,39.7,48,33,24,29.82,29.67,8,4,11,0.00
2013-8-25,95.9,74.1,55.6,50.9,47.0,39.3,78,43,22,29.88,29.82,16,7,20,0.00
2013-8-26,93.4,74.3,60.6,53.2,48.4,40.4,76,44,22,29.85,29.79,10,4,14,0.00
2013-8-27,91.6,75.5,63.7,49.2,44.7,41.4,50,35,22,29.97,29.79,16,6,16,0.00
2013-8-28,97.5,75.7,60.2,67.3,53.6,45.1,100,53,22,29.91,29.79,22,10,22,0.24
2013-8-29,91.6,72.9,59.9,64.2,55.5,45.4,100,63,22,29.97,29.85,8,3,8,0.00
2013-8-30,92.6,72.9,57.5,60.2,50.3,38.7,100,53,22,29.94,29.79,11,4,13,0.00
2013-8-31,80.0,66.1,53.8,47.9,41.4,35.9,74,43,28,30.03,29.82,15,7,25,0.00
2013-9-1,83.5,64.3,47.3,60.4,47.9,41.7,100,64,26,30.09,29.91,10,5,17,0.00
2013-9-2,95.2,71.6,53.4,55.6,49.3,40.0,100,55,22,29.94,29.79,14,9,18,0.00
2013-9-3,97.5,77.9,60.8,56.9,47.7,40.4,66,37,22,29.91,29.82,19,7,21,0.00
2013-9-4,75.5,68.4,59.9,67.3,56.1,39.8,100,67,32,30.06,29.91,16,10,21,0.00
2013-9-5,98.2,77.0,59.0,61.5,55.1,46.8,100,55,22,30.00,29.85,10,6,13,0.00
2013-9-6,92.1,77.9,65.5,68.3,54.2,46.9,100,50,22,29.94,29.85,13,7,16,0.12
2013-9-7,71.0,65.7,62.0,63.7,57.0,48.5,100,75,48,30.06,29.91,19,12,30,0.55
2013-9-8,68.9,63.4,59.0,62.2,58.3,51.5,100,85,54,30.00,29.76,11,4,14,0.67
2013-9-9,71.8,62.7,53.4,61.1,54.7,45.9,100,79,42,29.88,29.76,14,4,14,0.00
2013-9-10,80.6,64.5,50.2,58.3,48.0,41.1,100,63,28,30.00,29.88,9,2,10,0.00
2013-9-11,78.6,63.7,47.8,55.1,44.5,34.2,100,56,28,30.21,30.00,10,3,14,0.00
2013-9-12,80.6,61.1,43.3,45.7,41.3,34.6,100,55,28,30.26,30.03,16,8,17,0.00
2013-9-13,86.5,66.3,50.3,54.3,46.0,38.8,96,53,26,30.03,29.70,15,9,25,0.00
2013-9-14,77.9,65.3,53.0,56.1,45.5,29.7,90,53,30,30.06,29.67,20,9,24,0.00
2013-9-15,75.4,57.9,41.7,44.9,40.4,33.3,100,59,30,30.18,30.03,16,9,22,0.00
2013-9-16,82.9,64.5,47.5,48.9,43.4,35.6,100,51,26,30.03,29.65,19,10,24,0.00
2013-9-17,80.8,65.1,50.9,56.7,47.2,41.6,100,59,28,29.70,29.56,8,3,11,0.00
2013-9-18,73.4,61.6,52.1,57.5,46.9,33.3,100,62,36,29.76,29.56,16,9,22,0.00
2013-9-19,62.2,49.9,39.5,50.2,40.2,30.3,100,74,36,30.06,29.76,14,7,17,0.04
2013-9-20,72.8,51.8,33.1,41.5,36.6,29.5,100,64,32,30.06,29.79,17,6,18,0.00
2013-9-21,85.1,59.8,41.9,46.3,36.7,31.6,76,46,26,29.79,29.50,16,10,19,0.00
2013-9-22,75.4,61.1,48.0,46.4,38.7,32.3,94,46,30,29.59,29.50,19,6,25,0.00
2013-9-23,73.9,58.6,48.4,41.6,36.6,24.0,76,46,30,29.82,29.56,14,6,22,0.00
2013-9-24,73.9,55.9,34.1,41.4,32.8,20.5,74,44,30,29.91,29.62,15,6,22,0.00
2013-9-25,56.8,50.9,46.4,49.6,44.6,37.6,100,81,52,29.70,29.56,10,7,15,0.00
2013-9-26,52.9,45.9,37.4,48.0,41.7,35.7,100,87,52,29.91,29.67,14,8,21,0.04
2013-9-27,59.3,44.8,35.0,40.3,33.5,23.9,100,70,38,29.94,29.79,10,6,15,0.00
2013-9-28,66.4,49.7,35.6,39.7,35.2,24.8,100,64,34,29.82,29.70,16,7,22,0.00
2013-9-29,74.3,58.7,40.3,40.8,33.3,21.0,54,39,30,29.67,29.50,20,13,30,0.00
2013-9-30,66.5,50.7,34.9,40.5,31.0,21.2,100,50,34,29.67,29.47,20,10,25,0.00
2013-10-1,66.2,52.2,40.6,37.0,27.2,18.5,44,38,34,29.91,29.70,19,12,26,0.00
2013-10-2,60.4,46.1,31.8,34.7,24.6,16.5,68,43,38,30.06,29.94,19,5,19,0.00
2013-10-3,48.4,41.4,33.8,32.4,26.4,18.8,78,56,42,30.30,30.03,14,9,20,0.00
2013-10-4,47.5,36.8,23.5,26.0,21.2,14.5,88,55,38,30.41,30.30,11,5,17,0.00
2013-10-5,62.2,37.8,16.5,34.9,23.9,14.1,100,63,36,30.32,30.03,14,4,15,0.00
2013-10-6,71.8,49.2,30.2,40.3,31.3,24.8,94,55,32,30.06,29.91,10,4,16,0.00
2013-10-7,75.5,51.2,33.2,41.9,33.3,20.1,100,56,30,29.91,29.59,11,6,14,0.00
2013-10-8,64.0,48.2,34.1,36.5,26.9,14.5,66,44,36,29.88,29.59,16,5,19,0.00
2013-10-9,61.9,41.7,24.8,36.6,27.8,17.0,100,62,36,30.09,29.91,10,3,11,0.00
2013-10-10,64.6,51.3,40.3,43.7,34.6,28.2,100,57,34,29.88,29.65,13,7,18,0.00
2013-10-11,57.0,46.5,38.5,36.9,29.1,18.8,94,53,36,29.91,29.70,18,11,23,0.00
2013-10-12,54.8,39.2,26.2,31.0,23.0,13.0,92,55,36,30.21,29.94,13,4,14,0.00
2013-10-13,56.6,41.8,27.5,31.3,22.8,16.9,66,48,36,30.26,30.18,19,8,19,0.00
2013-10-14,52.5,42.6,30.9,26.3,20.2,13.8,50,41,36,30.30,30.21,19,9,25,0.00
2013-10-15,56.1,34.6,18.3,31.0,21.9,12.8,100,65,38,30.32,30.00,14,3,15,0.00
2013-10-16,54.7,35.3,19.7,40.8,28.5,19.1,100,81,40,30.12,29.94,16,4,18,0.00
2013-10-17,47.6,33.3,21.2,38.3,29.4,21.2,100,89,42,30.15,30.06,14,4,21,0.04
2013-10-18,53.9,41.8,32.3,38.8,31.2,24.6,100,71,40,30.12,29.85,13,6,15,0.00
2013-10-19,59.5,45.5,32.9,34.0,30.9,25.0,100,62,38,29.85,29.70,16,7,22,0.00
2013-10-20,44.8,38.6,32.2,38.8,31.1,25.5,100,76,56,30.03,29.79,13,5,17,0.00
2013-10-21,56.8,44.1,35.4,48.0,38.6,30.3,100,84,38,29.97,29.88,15,4,19,0.04
2013-10-22,56.5,45.4,38.6,44.2,39.0,31.6,100,82,44,30.09,29.97,7,2,10,0.00
2013-10-23,49.4,40.5,26.6,42.2,33.6,22.7,100,80,42,30.30,30.03,8,2,13,0.00
2013-10-24,51.1,34.0,20.6,36.5,26.5,20.6,100,78,42,30.32,30.06,13,4,16,0.00
2013-10-25,60.8,42.5,24.8,39.2,29.8,6.9,100,67,36,30.18,30.00,14,5,19,0.00
2013-10-26,64.0,36.1,16.3,36.5,21.3,6.2,100,59,36,30.26,29.85,8,2,13,0.00
2013-10-27,45.8,33.0,20.8,32.5,22.7,17.3,100,69,44,30.26,29.85,27,11,30,0.00
2013-10-28,28.7,24.7,20.6,25.1,16.0,11.3,100,71,50,30.38,30.24,21,15,25,0.00
2013-10-29,32.5,29.0,25.0,32.2,27.1,23.8,100,93,70,30.24,29.88,15,10,16,0.00
2013-10-30,46.4,32.0,21.0,33.1,26.6,21.0,100,84,42,29.88,29.67,8,4,10,0.00
2013-10-31,51.8,38.8,26.0,36.9,29.8,24.7,100,75,40,29.70,29.56,19,7,22,0.00
2013-11-1,54.7,39.2,24.8,31.5,24.6,11.7,82,58,36,30.00,29.73,16,9,26,0.00
2013-11-2,51.4,33.5,16.7,29.1,22.5,16.7,100,68,42,30.00,29.53,11,5,17,0.00
2013-11-3,46.9,37.6,30.5,38.5,26.1,16.7,100,66,42,29.76,29.47,19,11,27,0.00
2013-11-4,32.9,23.6,7.5,15.5,10.9,1.2,94,60,44,30.12,29.79,19,10,26,0.00
2013-11-5,43.3,20.4,5.2,22.6,11.4,3.7,100,72,40,30.15,30.00,8,3,14,0.00
2013-11-6,41.7,22.3,9.3,19.1,12.0,4.2,100,68,40,30.18,30.00,10,2,13,0.00
2013-11-7,48.0,29.6,10.0,28.5,19.3,10.0,100,71,38,30.24,29.62,14,5,20,0.00
2013-11-8,46.9,38.8,34.1,40.5,33.1,26.1,100,83,48,29.91,29.56,21,9,26,0.00
2013-11-9,38.6,29.9,23.5,33.4,25.4,19.5,100,86,46,30.18,29.94,10,4,13,0.00
2013-11-10,30.0,23.7,14.9,30.0,20.1,9.3,100,87,52,30.35,30.03,16,8,19,0.00
2013-11-11,27.5,14.3,4.6,15.1,10.3,2.3,100,85,56,30.47,30.35,14,4,14,0.00
2013-11-12,43.9,26.5,9.3,36.3,24.0,9.3,100,92,60,30.38,29.94,14,6,18,0.00
2013-11-13,52.9,39.7,31.3,36.8,31.3,26.6,100,76,40,29.97,29.82,13,6,16,0.00
2013-11-14,48.0,35.2,26.6,32.9,29.2,23.1,100,82,42,29.88,29.59,7,3,11,0.00
2013-11-15,49.3,35.8,23.3,34.3,26.0,18.6,100,73,38,29.59,29.26,14,4,21,0.00
2013-11-16,43.7,36.0,31.6,36.8,30.3,22.3,100,82,44,29.35,29.17,8,1,10,0.00
2013-11-17,34.9,25.6,14.0,34.9,21.1,11.9,100,85,56,29.85,29.38,14,7,21,0.00
2013-11-18,48.4,29.0,15.8,26.6,21.2,15.8,100,77,38,29.85,29.62,14,8,15,0.00
2013-11-19,58.1,32.5,13.1,32.6,22.4,5.1,100,70,38,29.70,29.35,13,7,16,0.00
2013-11-20,15.1,4.7,-19.0,5.7,-2.5,-25.2,72,72,66,30.32,29.73,12,6,16,0.00
2013-11-21,20.1,-3.3,-24.9,8.4,-11.2,-31.0,72,69,60,30.38,30.21,8,1,10,0.00
2013-11-22,19.9,6.5,-6.7,9.7,-2.1,-15.7,70,67,64,30.50,30.24,13,5,16,0.00
2013-11-23,22.4,9.0,-4.2,20.0,2.8,-11.5,100,76,64,30.50,29.97,16,9,19,0.00
2013-11-24,36.3,19.0,6.4,22.9,15.4,6.4,100,88,58,30.00,29.82,7,1,10,0.00
2013-11-25,34.1,23.3,17.6,21.0,17.1,10.4,100,78,54,30.26,30.03,13,6,16,0.00
2013-11-26,30.0,16.8,3.0,17.9,12.4,2.6,98,84,50,30.30,29.85,16,6,16,0.00
2013-11-27,36.5,23.2,11.5,24.3,18.9,11.5,100,86,58,30.09,29.79,11,3,14,0.00
2013-11-28,27.8,22.8,17.0,25.7,22.6,17.0,100,99,86,30.09,29.82,20,12,22,0.00
2013-11-29,38.3,22.3,7.5,29.1,19.4,7.5,100,90,52,29.88,29.76,13,2,14,0.00
2013-11-30,42.1,34.1,29.5,34.3,31.2,26.4,100,91,56,29.94,29.79,8,4,14,0.00
2013-12-1,41.5,35.1,27.8,40.8,34.5,27.8,100,98,78,29.76,29.35,8,4,11,0.00
2013-12-2,35.2,28.1,18.8,35.2,27.2,14.8,100,96,84,29.65,29.32,14,1,15,0.00
2013-12-3,18.1,10.7,4.6,15.2,7.6,1.8,88,87,80,29.91,29.62,0,0,0,0.00
2013-12-4,4.1,-3.0,-17.0,1.3,-5.7,-19.5,88,88,88,30.00,29.94,0,0,0,0.00
2013-12-5,-10.1,-20.4,-28.0,-12.7,-22.9,-30.3,88,88,88,30.15,30.00,0,0,0,0.00
2013-12-6,-15.2,-26.1,-33.7,-17.7,-28.5,-36.0,88,88,88,30.30,30.18,0,0,0,0.00
2013-12-7,-15.9,-30.4,-39.7,-18.4,-32.8,-41.9,88,88,88,30.32,29.91,0,0,0,0.00
2013-12-8,-2.9,-19.7,-36.2,-5.6,-22.2,-38.5,88,88,88,29.88,29.73,0,0,0,0.00
2013-12-9,19.0,-2.7,-26.2,14.6,-7.2,-28.5,88,81,72,29.85,29.41,20,4,30,0.00
2013-12-10,17.4,3.6,-22.4,16.1,-4.1,-34.4,100,72,52,30.09,29.62,13,5,16,0.00
2013-12-11,9.8,-1.1,-19.1,-4.3,-14.5,-31.4,52,52,52,30.09,29.79,10,3,11,0.00
2013-12-12,30.5,16.7,7.0,19.5,12.2,-3.0,100,84,52,29.82,29.62,19,5,24,0.00
2013-12-13,9.7,6.3,0.8,8.7,5.4,0.0,96,96,96,29.88,29.65,16,10,19,0.00
2013-12-14,10.7,4.3,-5.1,9.8,3.4,-5.9,96,96,96,29.91,29.62,10,3,13,0.00
2013-12-15,39.0,21.4,5.3,29.6,16.3,4.4,100,82,58,29.62,29.47,13,4,16,0.00
2013-12-16,33.2,30.3,23.0,33.1,27.8,17.0,100,91,64,29.88,29.65,13,7,15,0.00
2013-12-17,27.3,15.2,3.9,19.2,12.0,-0.4,100,87,64,29.94,29.38,10,4,13,0.00
2013-12-18,32.7,20.3,2.5,27.0,14.6,-3.9,100,79,68,29.76,29.35,17,9,19,0.00
2013-12-19,5.2,-4.9,-19.7,-1.3,-11.0,-25.4,74,74,74,29.91,29.70,14,3,16,0.00
2013-12-20,4.3,-5.2,-19.7,-2.2,-11.4,-25.4,74,74,74,29.70,29.41,16,3,17,0.00
2013-12-21,5.0,-2.4,-18.4,-1.5,-8.7,-24.2,74,74,74,29.79,29.41,21,10,23,0.00
2013-12-22,3.9,-12.1,-29.8,-2.5,-18.0,-35.2,74,74,74,30.12,29.79,7,2,8,0.00
2013-12-23,24.8,-11.8,-33.7,24.8,-17.2,-39.0,100,76,74,30.12,29.50,13,6,14,0.00
2013-12-24,29.3,21.3,6.4,29.3,18.8,6.4,100,91,68,29.88,29.50,10,6,19,0.00
2013-12-25,30.5,23.8,18.7,23.6,19.4,15.5,100,84,60,29.97,29.65,11,4,13,0.00
2013-12-26,36.3,26.5,17.8,30.7,22.6,17.0,100,86,62,29.76,29.56,8,4,11,0.00
2013-12-27,37.9,30.7,24.1,31.8,28.2,24.1,100,91,66,29.65,29.41,10,3,13,0.00
2013-12-28,37.2,8.8,-2.9,30.1,2.7,-8.6,92,76,64,30.18,29.41,25,10,30,0.00
2013-12-29,12.9,4.1,-10.0,11.5,-0.3,-15.5,94,82,76,30.15,29.53,13,6,16,0.00
2013-12-30,18.3,10.4,4.3,14.3,2.5,-7.3,94,71,58,29.91,29.59,22,9,22,0.00
2013-12-31,3.7,-0.7,-3.7,-7.8,-11.9,-14.8,58,58,58,29.79,29.70,22,16,28,0.00
2014-1-1,9.3,3.3,-3.8,-2.5,-8.1,-14.9,58,58,58,30.06,29.82,10,4,11,0.00
2014-1-2,16.3,8.5,3.9,16.3,1.2,-7.6,100,73,58,29.94,29.32,16,9,19,0.00